sensor_id;sensor_type;location;lat;lon;timestamp;temperature;humidity
45579;DHT22;31293;51.390;12.254;2023-08-20T09:07:18;32.10;78.40
45579;DHT22;31293;51.390;12.254;2023-08-20T09:09:21;32.00;74.70
45579;DHT22;31293;51.390;12.254;2023-08-20T09:11:34;31.90;74.50
45579;DHT22;31293;51.390;12.254;2023-08-20T09:13:41;31.60;75.20
45579;DHT22;31293;51.390;12.254;2023-08-20T09:15:45;31.80;74.50
45579;DHT22;31293;51.390;12.254;2023-08-20T09:17:46;32.00;72.80
45579;DHT22;31293;51.390;12.254;2023-08-20T09:19:48;32.00;74.30
45579;DHT22;31293;51.390;12.254;2023-08-20T09:21:50;31.70;73.70
45579;DHT22;31293;51.390;12.254;2023-08-20T09:23:54;31.10;75.40
45579;DHT22;31293;51.390;12.254;2023-08-20T09:25:57;30.60;76.50
45579;DHT22;31293;51.390;12.254;2023-08-20T09:28:02;29.50;78.70
45579;DHT22;31293;51.390;12.254;2023-08-20T09:30:05;29.20;79.10
45579;DHT22;31293;51.390;12.254;2023-08-20T09:32:07;29.10;80.50
45579;DHT22;31293;51.390;12.254;2023-08-20T09:34:12;28.70;82.60
45579;DHT22;31293;51.390;12.254;2023-08-20T09:36:15;29.10;83.90
45579;DHT22;31293;51.390;12.254;2023-08-20T09:38:19;30.20;79.50
45579;DHT22;31293;51.390;12.254;2023-08-20T09:40:24;31.10;80.40
45579;DHT22;31293;51.390;12.254;2023-08-20T09:42:27;32.00;74.60
45579;DHT22;31293;51.390;12.254;2023-08-20T09:44:46;32.20;75.80
45579;DHT22;31293;51.390;12.254;2023-08-20T09:46:52;33.30;69.70
45579;DHT22;31293;51.390;12.254;2023-08-20T09:48:56;33.80;71.60
45579;DHT22;31293;51.390;12.254;2023-08-20T09:50:59;32.10;71.80
45579;DHT22;31293;51.390;12.254;2023-08-20T09:53:22;32.70;71.70
45579;DHT22;31293;51.390;12.254;2023-08-20T09:55:30;32.50;73.00
45579;DHT22;31293;51.390;12.254;2023-08-20T09:57:37;32.60;74.20
45579;DHT22;31293;51.390;12.254;2023-08-20T09:59:41;32.40;70.80
45579;DHT22;31293;51.390;12.254;2023-08-20T10:01:44;33.10;72.00
45579;DHT22;31293;51.390;12.254;2023-08-20T10:03:46;33.30;67.70
45579;DHT22;31293;51.390;12.254;2023-08-20T10:05:51;32.00;70.30
45579;DHT22;31293;51.390;12.254;2023-08-20T10:07:55;33.00;69.10
45579;DHT22;31293;51.390;12.254;2023-08-20T10:09:58;33.60;69.50
45579;DHT22;31293;51.390;12.254;2023-08-20T10:12:01;34.70;68.00
45579;DHT22;31293;51.390;12.254;2023-08-20T10:14:03;33.70;69.40
45579;DHT22;31293;51.390;12.254;2023-08-20T10:16:06;32.10;68.20
45579;DHT22;31293;51.390;12.254;2023-08-20T10:18:08;32.00;73.20
45579;DHT22;31293;51.390;12.254;2023-08-20T10:20:14;31.60;70.20
45579;DHT22;31293;51.390;12.254;2023-08-20T10:22:17;31.00;76.60
45579;DHT22;31293;51.390;12.254;2023-08-20T10:24:19;31.10;70.80
45579;DHT22;31293;51.390;12.254;2023-08-20T10:26:21;31.50;72.80
45579;DHT22;31293;51.390;12.254;2023-08-20T10:28:26;31.60;73.00
45579;DHT22;31293;51.390;12.254;2023-08-20T10:30:31;33.90;68.80
45579;DHT22;31293;51.390;12.254;2023-08-20T10:32:52;35.10;66.60
45579;DHT22;31293;51.390;12.254;2023-08-20T10:34:57;32.70;67.00
45579;DHT22;31293;51.390;12.254;2023-08-20T10:37:01;30.90;73.00
45579;DHT22;31293;51.390;12.254;2023-08-20T10:39:05;30.80;74.10
45579;DHT22;31293;51.390;12.254;2023-08-20T10:41:08;32.60;73.60
45579;DHT22;31293;51.390;12.254;2023-08-20T10:43:10;33.70;70.60
45579;DHT22;31293;51.390;12.254;2023-08-20T10:45:25;34.20;73.40
45579;DHT22;31293;51.390;12.254;2023-08-20T10:47:56;35.80;69.10
45579;DHT22;31293;51.390;12.254;2023-08-20T10:50:00;35.30;66.50
45579;DHT22;31293;51.390;12.254;2023-08-20T10:52:01;34.30;66.90
45579;DHT22;31293;51.390;12.254;2023-08-20T10:54:06;34.90;65.20
45579;DHT22;31293;51.390;12.254;2023-08-20T10:56:12;31.30;69.70
45579;DHT22;31293;51.390;12.254;2023-08-20T10:58:15;32.40;71.30
45579;DHT22;31293;51.390;12.254;2023-08-20T11:00:18;34.80;68.20
45579;DHT22;31293;51.390;12.254;2023-08-20T11:02:20;34.40;68.40
45579;DHT22;31293;51.390;12.254;2023-08-20T11:04:30;32.50;69.00
45579;DHT22;31293;51.390;12.254;2023-08-20T11:06:35;32.10;73.90
45579;DHT22;31293;51.390;12.254;2023-08-20T11:08:41;31.70;72.20
45579;DHT22;31293;51.390;12.254;2023-08-20T11:10:44;32.10;70.20
45579;DHT22;31293;51.390;12.254;2023-08-20T11:12:47;32.60;69.30
45579;DHT22;31293;51.390;12.254;2023-08-20T11:14:49;33.60;69.30
45579;DHT22;31293;51.390;12.254;2023-08-20T11:16:51;33.70;66.10
45579;DHT22;31293;51.390;12.254;2023-08-20T11:18:56;33.20;67.60
45579;DHT22;31293;51.390;12.254;2023-08-20T11:20:58;33.70;67.80
45579;DHT22;31293;51.390;12.254;2023-08-20T11:23:00;35.10;67.20
45579;DHT22;31293;51.390;12.254;2023-08-20T11:25:03;35.70;64.60
45579;DHT22;31293;51.390;12.254;2023-08-20T11:27:06;36.10;62.70
45579;DHT22;31293;51.390;12.254;2023-08-20T11:29:08;35.90;61.40
45579;DHT22;31293;51.390;12.254;2023-08-20T11:31:11;36.40;59.30
45579;DHT22;31293;51.390;12.254;2023-08-20T11:33:13;35.70;62.70
45579;DHT22;31293;51.390;12.254;2023-08-20T11:35:14;35.60;60.60
45579;DHT22;31293;51.390;12.254;2023-08-20T11:37:23;34.30;65.00
45579;DHT22;31293;51.390;12.254;2023-08-20T11:39:25;32.70;67.90
45579;DHT22;31293;51.390;12.254;2023-08-20T11:41:27;32.50;68.40
45579;DHT22;31293;51.390;12.254;2023-08-20T11:43:30;33.90;65.40
45579;DHT22;31293;51.390;12.254;2023-08-20T11:45:32;31.40;68.50
45579;DHT22;31293;51.390;12.254;2023-08-20T11:47:41;32.50;76.00
45579;DHT22;31293;51.390;12.254;2023-08-20T11:49:43;34.10;66.50
45579;DHT22;31293;51.390;12.254;2023-08-20T11:51:47;33.40;66.00
45579;DHT22;31293;51.390;12.254;2023-08-20T11:53:51;33.00;67.80
45579;DHT22;31293;51.390;12.254;2023-08-20T11:55:52;33.30;68.50
45579;DHT22;31293;51.390;12.254;2023-08-20T11:57:55;34.80;69.50
45579;DHT22;31293;51.390;12.254;2023-08-20T12:00:02;35.60;66.70
45579;DHT22;31293;51.390;12.254;2023-08-20T12:02:06;31.70;68.70
45579;DHT22;31293;51.390;12.254;2023-08-20T12:04:09;29.50;77.20
45579;DHT22;31293;51.390;12.254;2023-08-20T12:06:19;29.40;77.60
45579;DHT22;31293;51.390;12.254;2023-08-20T12:08:21;30.40;73.90
45579;DHT22;31293;51.390;12.254;2023-08-20T12:10:23;30.10;75.30
45579;DHT22;31293;51.390;12.254;2023-08-20T12:12:25;31.20;73.60
45579;DHT22;31293;51.390;12.254;2023-08-20T12:14:27;32.10;71.40
45579;DHT22;31293;51.390;12.254;2023-08-20T12:16:28;31.60;73.00
45579;DHT22;31293;51.390;12.254;2023-08-20T12:18:31;30.70;73.80
45579;DHT22;31293;51.390;12.254;2023-08-20T12:20:34;30.80;73.80
45579;DHT22;31293;51.390;12.254;2023-08-20T12:22:36;31.50;73.30
45579;DHT22;31293;51.390;12.254;2023-08-20T12:24:38;32.80;70.90
45579;DHT22;31293;51.390;12.254;2023-08-20T12:26:42;33.00;70.00
45579;DHT22;31293;51.390;12.254;2023-08-20T12:28:44;35.00;67.00
45579;DHT22;31293;51.390;12.254;2023-08-20T12:30:46;35.90;64.50
45579;DHT22;31293;51.390;12.254;2023-08-20T12:32:48;35.50;64.10
45579;DHT22;31293;51.390;12.254;2023-08-20T12:34:50;33.40;66.70
45579;DHT22;31293;51.390;12.254;2023-08-20T12:36:52;32.50;71.60
45579;DHT22;31293;51.390;12.254;2023-08-20T12:38:55;35.00;70.70
45579;DHT22;31293;51.390;12.254;2023-08-20T12:40:57;36.20;64.20
45579;DHT22;31293;51.390;12.254;2023-08-20T12:42:59;36.10;62.70
45579;DHT22;31293;51.390;12.254;2023-08-20T12:45:00;35.40;63.90
45579;DHT22;31293;51.390;12.254;2023-08-20T12:47:02;34.90;64.80
45579;DHT22;31293;51.390;12.254;2023-08-20T12:49:07;35.60;62.60
45579;DHT22;31293;51.390;12.254;2023-08-20T12:51:09;35.10;62.50
45579;DHT22;31293;51.390;12.254;2023-08-20T12:53:15;34.60;63.10
45579;DHT22;31293;51.390;12.254;2023-08-20T12:55:17;33.20;67.90
45579;DHT22;31293;51.390;12.254;2023-08-20T12:57:19;33.40;67.30
45579;DHT22;31293;51.390;12.254;2023-08-20T12:59:21;33.70;68.50
45579;DHT22;31293;51.390;12.254;2023-08-20T13:01:27;33.00;68.00
45579;DHT22;31293;51.390;12.254;2023-08-20T13:03:29;33.50;70.30
45579;DHT22;31293;51.390;12.254;2023-08-20T13:05:32;34.50;64.60
45579;DHT22;31293;51.390;12.254;2023-08-20T13:07:34;34.70;63.70
45579;DHT22;31293;51.390;12.254;2023-08-20T13:09:36;35.40;66.30
45579;DHT22;31293;51.390;12.254;2023-08-20T13:11:38;34.40;65.80
45579;DHT22;31293;51.390;12.254;2023-08-20T13:13:41;34.40;66.40
45579;DHT22;31293;51.390;12.254;2023-08-20T13:15:43;33.60;65.90
45579;DHT22;31293;51.390;12.254;2023-08-20T13:17:47;31.80;69.50
45579;DHT22;31293;51.390;12.254;2023-08-20T13:19:49;31.20;71.70
45579;DHT22;31293;51.390;12.254;2023-08-20T13:21:51;31.20;72.20
45579;DHT22;31293;51.390;12.254;2023-08-20T13:23:53;31.10;73.30
45579;DHT22;31293;51.390;12.254;2023-08-20T13:25:55;31.40;72.60
45579;DHT22;31293;51.390;12.254;2023-08-20T13:27:57;31.60;70.90
45579;DHT22;31293;51.390;12.254;2023-08-20T13:29:59;31.60;73.10
45579;DHT22;31293;51.390;12.254;2023-08-20T13:32:01;31.70;71.30
45579;DHT22;31293;51.390;12.254;2023-08-20T13:34:02;31.80;72.60
45579;DHT22;31293;51.390;12.254;2023-08-20T13:36:05;31.90;71.40
45579;DHT22;31293;51.390;12.254;2023-08-20T13:38:07;33.10;69.20
45579;DHT22;31293;51.390;12.254;2023-08-20T13:40:09;33.40;69.90
45579;DHT22;31293;51.390;12.254;2023-08-20T13:42:11;33.70;67.60
45579;DHT22;31293;51.390;12.254;2023-08-20T13:44:13;34.40;67.40
45579;DHT22;31293;51.390;12.254;2023-08-20T13:46:15;34.20;66.00
45579;DHT22;31293;51.390;12.254;2023-08-20T13:48:17;33.00;66.30
45579;DHT22;31293;51.390;12.254;2023-08-20T13:50:19;33.80;68.80
45579;DHT22;31293;51.390;12.254;2023-08-20T13:52:21;35.00;64.60
45579;DHT22;31293;51.390;12.254;2023-08-20T13:54:23;33.60;67.40
45579;DHT22;31293;51.390;12.254;2023-08-20T13:56:25;33.80;66.50
45579;DHT22;31293;51.390;12.254;2023-08-20T13:58:27;33.10;68.70
45579;DHT22;31293;51.390;12.254;2023-08-20T14:00:29;32.40;69.90
45579;DHT22;31293;51.390;12.254;2023-08-20T14:02:31;31.30;70.90
45579;DHT22;31293;51.390;12.254;2023-08-20T14:04:32;31.80;74.30
45579;DHT22;31293;51.390;12.254;2023-08-20T14:06:34;32.40;71.90
45579;DHT22;31293;51.390;12.254;2023-08-20T14:08:36;32.80;70.10
45579;DHT22;31293;51.390;12.254;2023-08-20T14:10:38;32.00;70.80
45579;DHT22;31293;51.390;12.254;2023-08-20T14:12:40;32.60;69.50
45579;DHT22;31293;51.390;12.254;2023-08-20T14:14:42;33.30;70.40
45579;DHT22;31293;51.390;12.254;2023-08-20T14:16:44;33.30;69.10
45579;DHT22;31293;51.390;12.254;2023-08-20T14:18:46;34.40;69.00
45579;DHT22;31293;51.390;12.254;2023-08-20T14:20:47;33.80;67.90
45579;DHT22;31293;51.390;12.254;2023-08-20T14:22:50;35.10;64.20
45579;DHT22;31293;51.390;12.254;2023-08-20T14:24:51;34.70;63.80
45579;DHT22;31293;51.390;12.254;2023-08-20T14:26:53;34.30;66.00
45579;DHT22;31293;51.390;12.254;2023-08-20T14:28:55;33.90;65.00
45579;DHT22;31293;51.390;12.254;2023-08-20T14:30:57;32.90;67.80
45579;DHT22;31293;51.390;12.254;2023-08-20T14:33:03;33.70;65.50
45579;DHT22;31293;51.390;12.254;2023-08-20T14:35:05;35.20;66.10
45579;DHT22;31293;51.390;12.254;2023-08-20T14:37:07;35.70;64.40
45579;DHT22;31293;51.390;12.254;2023-08-20T14:39:09;35.30;64.30
45579;DHT22;31293;51.390;12.254;2023-08-20T14:41:10;34.90;65.30
45579;DHT22;31293;51.390;12.254;2023-08-20T14:43:12;35.60;65.00
45579;DHT22;31293;51.390;12.254;2023-08-20T14:45:14;35.10;64.50
45579;DHT22;31293;51.390;12.254;2023-08-20T14:47:16;34.40;67.30
45579;DHT22;31293;51.390;12.254;2023-08-20T14:49:18;33.40;66.80
45579;DHT22;31293;51.390;12.254;2023-08-20T14:51:20;32.40;68.20
45579;DHT22;31293;51.390;12.254;2023-08-20T14:53:22;32.30;70.80
45579;DHT22;31293;51.390;12.254;2023-08-20T14:55:24;32.50;69.50
45579;DHT22;31293;51.390;12.254;2023-08-20T14:57:26;32.80;69.30
45579;DHT22;31293;51.390;12.254;2023-08-20T14:59:46;33.30;67.10
45579;DHT22;31293;51.390;12.254;2023-08-20T15:01:47;33.30;69.70
45579;DHT22;31293;51.390;12.254;2023-08-20T15:03:49;33.40;69.20
45579;DHT22;31293;51.390;12.254;2023-08-20T15:05:51;33.70;67.30
45579;DHT22;31293;51.390;12.254;2023-08-20T15:07:53;34.50;66.30
45579;DHT22;31293;51.390;12.254;2023-08-20T15:09:55;34.20;65.10
45579;DHT22;31293;51.390;12.254;2023-08-20T15:11:56;33.30;67.10
45579;DHT22;31293;51.390;12.254;2023-08-20T15:13:58;33.30;65.70
45579;DHT22;31293;51.390;12.254;2023-08-20T15:16:00;32.40;68.30
45579;DHT22;31293;51.390;12.254;2023-08-20T15:18:02;32.90;68.00
45579;DHT22;31293;51.390;12.254;2023-08-20T15:20:04;33.30;68.60
45579;DHT22;31293;51.390;12.254;2023-08-20T15:22:13;33.90;66.30
45579;DHT22;31293;51.390;12.254;2023-08-20T15:24:15;34.30;65.30
45579;DHT22;31293;51.390;12.254;2023-08-20T15:26:17;34.80;64.20
45579;DHT22;31293;51.390;12.254;2023-08-20T15:28:20;33.90;67.20
45579;DHT22;31293;51.390;12.254;2023-08-20T15:30:21;34.00;65.20
45579;DHT22;31293;51.390;12.254;2023-08-20T15:32:28;34.00;64.80
45579;DHT22;31293;51.390;12.254;2023-08-20T15:34:29;34.00;63.90
45579;DHT22;31293;51.390;12.254;2023-08-20T15:36:31;34.30;65.90
45579;DHT22;31293;51.390;12.254;2023-08-20T15:38:33;33.70;65.90
45579;DHT22;31293;51.390;12.254;2023-08-20T15:40:38;33.10;67.60
45579;DHT22;31293;51.390;12.254;2023-08-20T15:42:40;32.50;68.90
45579;DHT22;31293;51.390;12.254;2023-08-20T15:44:44;33.00;67.60
45579;DHT22;31293;51.390;12.254;2023-08-20T15:46:46;33.70;65.90
45579;DHT22;31293;51.390;12.254;2023-08-20T15:48:48;33.30;67.40
45579;DHT22;31293;51.390;12.254;2023-08-20T15:50:50;33.00;69.30
45579;DHT22;31293;51.390;12.254;2023-08-20T15:52:51;33.50;68.30
45579;DHT22;31293;51.390;12.254;2023-08-20T15:54:53;33.40;66.70
45579;DHT22;31293;51.390;12.254;2023-08-20T15:56:55;32.50;67.80
45579;DHT22;31293;51.390;12.254;2023-08-20T15:58:57;32.50;68.20
45579;DHT22;31293;51.390;12.254;2023-08-20T16:00:59;32.80;69.00
45579;DHT22;31293;51.390;12.254;2023-08-20T16:03:00;33.50;66.80
45579;DHT22;31293;51.390;12.254;2023-08-20T16:05:02;33.30;67.80
45579;DHT22;31293;51.390;12.254;2023-08-20T16:07:08;32.90;66.30
45579;DHT22;31293;51.390;12.254;2023-08-20T16:09:10;32.50;69.70
45579;DHT22;31293;51.390;12.254;2023-08-20T16:11:13;32.70;69.40
45579;DHT22;31293;51.390;12.254;2023-08-20T16:13:15;33.20;68.10
45579;DHT22;31293;51.390;12.254;2023-08-20T16:15:17;32.90;66.90
45579;DHT22;31293;51.390;12.254;2023-08-20T16:17:19;32.80;67.30
45579;DHT22;31293;51.390;12.254;2023-08-20T16:19:21;33.00;68.30
45579;DHT22;31293;51.390;12.254;2023-08-20T16:21:23;33.10;68.50
45579;DHT22;31293;51.390;12.254;2023-08-20T16:23:25;32.80;68.00
45579;DHT22;31293;51.390;12.254;2023-08-20T16:25:26;32.60;68.50
45579;DHT22;31293;51.390;12.254;2023-08-20T16:27:28;32.60;68.30
45579;DHT22;31293;51.390;12.254;2023-08-20T16:29:30;32.40;67.90
45579;DHT22;31293;51.390;12.254;2023-08-20T16:31:32;32.40;68.80
45579;DHT22;31293;51.390;12.254;2023-08-20T16:33:33;32.40;69.20
45579;DHT22;31293;51.390;12.254;2023-08-20T16:35:36;32.00;69.60
45579;DHT22;31293;51.390;12.254;2023-08-20T16:37:38;31.70;69.20
45579;DHT22;31293;51.390;12.254;2023-08-20T16:39:40;31.70;69.20
45579;DHT22;31293;51.390;12.254;2023-08-20T16:41:42;31.60;69.90
45579;DHT22;31293;51.390;12.254;2023-08-20T16:43:44;31.80;72.10
45579;DHT22;31293;51.390;12.254;2023-08-20T16:45:46;31.80;70.50
45579;DHT22;31293;51.390;12.254;2023-08-20T16:47:47;31.70;70.30
45579;DHT22;31293;51.390;12.254;2023-08-20T16:49:49;31.60;71.00
45579;DHT22;31293;51.390;12.254;2023-08-20T16:51:51;31.70;71.30
45579;DHT22;31293;51.390;12.254;2023-08-20T16:53:53;31.30;71.70
45579;DHT22;31293;51.390;12.254;2023-08-20T16:55:55;31.60;73.30
45579;DHT22;31293;51.390;12.254;2023-08-20T16:57:57;31.40;72.90
45579;DHT22;31293;51.390;12.254;2023-08-20T16:59:59;31.00;72.20
45579;DHT22;31293;51.390;12.254;2023-08-20T17:02:01;30.80;72.10
45579;DHT22;31293;51.390;12.254;2023-08-20T17:04:03;30.30;72.70
45579;DHT22;31293;51.390;12.254;2023-08-20T17:06:05;30.20;74.30
45579;DHT22;31293;51.390;12.254;2023-08-20T17:08:07;30.30;74.10
45579;DHT22;31293;51.390;12.254;2023-08-20T17:10:09;30.30;75.30
45579;DHT22;31293;51.390;12.254;2023-08-20T17:12:12;30.00;74.00
45579;DHT22;31293;51.390;12.254;2023-08-20T17:14:14;29.60;74.80
45579;DHT22;31293;51.390;12.254;2023-08-20T17:16:17;29.60;75.60
45579;DHT22;31293;51.390;12.254;2023-08-20T17:18:19;29.50;77.40
45579;DHT22;31293;51.390;12.254;2023-08-20T17:20:21;29.30;78.40
45579;DHT22;31293;51.390;12.254;2023-08-20T17:22:23;29.10;80.30
45579;DHT22;31293;51.390;12.254;2023-08-20T17:24:25;29.00;80.50
45579;DHT22;31293;51.390;12.254;2023-08-20T17:26:28;28.70;80.70
45579;DHT22;31293;51.390;12.254;2023-08-20T17:28:30;28.40;80.70
45579;DHT22;31293;51.390;12.254;2023-08-20T17:30:32;28.40;82.30
45579;DHT22;31293;51.390;12.254;2023-08-20T17:32:33;28.30;83.50
45579;DHT22;31293;51.390;12.254;2023-08-20T17:34:36;28.10;84.70
45579;DHT22;31293;51.390;12.254;2023-08-20T17:36:38;28.00;85.60
45579;DHT22;31293;51.390;12.254;2023-08-20T17:38:39;27.80;87.70
45579;DHT22;31293;51.390;12.254;2023-08-20T17:40:42;27.60;89.70
45579;DHT22;31293;51.390;12.254;2023-08-20T17:42:43;27.40;89.20
45579;DHT22;31293;51.390;12.254;2023-08-20T17:44:45;27.30;90.20
45579;DHT22;31293;51.390;12.254;2023-08-20T17:46:49;27.10;90.40
45579;DHT22;31293;51.390;12.254;2023-08-20T17:48:52;27.10;91.00
45579;DHT22;31293;51.390;12.254;2023-08-20T17:50:54;27.00;91.00
45579;DHT22;31293;51.390;12.254;2023-08-20T17:52:56;26.80;92.50
45579;DHT22;31293;51.390;12.254;2023-08-20T17:54:57;26.80;92.90
45579;DHT22;31293;51.390;12.254;2023-08-20T17:56:59;26.80;92.10
45579;DHT22;31293;51.390;12.254;2023-08-20T17:59:02;26.60;92.70
45579;DHT22;31293;51.390;12.254;2023-08-20T18:01:04;26.50;94.10
45579;DHT22;31293;51.390;12.254;2023-08-20T18:03:06;26.30;94.60
45579;DHT22;31293;51.390;12.254;2023-08-20T18:05:08;26.20;95.20
45579;DHT22;31293;51.390;12.254;2023-08-20T18:07:10;26.10;96.80
45579;DHT22;31293;51.390;12.254;2023-08-20T18:09:15;26.00;95.60
45579;DHT22;31293;51.390;12.254;2023-08-20T18:11:17;25.90;97.20
45579;DHT22;31293;51.390;12.254;2023-08-20T18:13:19;25.90;96.50
45579;DHT22;31293;51.390;12.254;2023-08-20T18:15:21;25.70;96.70
45579;DHT22;31293;51.390;12.254;2023-08-20T18:17:23;25.50;97.70
45579;DHT22;31293;51.390;12.254;2023-08-20T18:19:25;25.50;98.10
45579;DHT22;31293;51.390;12.254;2023-08-20T18:21:27;25.40;97.60
45579;DHT22;31293;51.390;12.254;2023-08-20T18:23:28;25.30;98.30
45579;DHT22;31293;51.390;12.254;2023-08-20T18:25:30;25.30;99.90
45579;DHT22;31293;51.390;12.254;2023-08-20T18:27:32;25.10;99.90
45579;DHT22;31293;51.390;12.254;2023-08-20T18:29:34;25.00;99.90
45579;DHT22;31293;51.390;12.254;2023-08-20T18:31:36;24.90;99.90
45579;DHT22;31293;51.390;12.254;2023-08-20T18:33:38;24.80;99.90
45579;DHT22;31293;51.390;12.254;2023-08-20T18:35:40;24.70;99.90
45579;DHT22;31293;51.390;12.254;2023-08-20T18:37:42;24.60;99.90
45579;DHT22;31293;51.390;12.254;2023-08-20T18:39:44;24.50;99.90
45579;DHT22;31293;51.390;12.254;2023-08-20T18:41:46;24.40;99.90
45579;DHT22;31293;51.390;12.254;2023-08-20T18:43:48;24.40;99.90
45579;DHT22;31293;51.390;12.254;2023-08-20T18:45:50;24.30;99.90
45579;DHT22;31293;51.390;12.254;2023-08-20T18:47:52;24.20;99.90
45579;DHT22;31293;51.390;12.254;2023-08-20T18:49:54;24.20;99.90
45579;DHT22;31293;51.390;12.254;2023-08-20T18:51:56;24.10;99.90
45579;DHT22;31293;51.390;12.254;2023-08-20T18:53:58;24.10;99.90
45579;DHT22;31293;51.390;12.254;2023-08-20T18:56:00;24.00;99.90
45579;DHT22;31293;51.390;12.254;2023-08-20T18:58:05;24.00;99.90
45579;DHT22;31293;51.390;12.254;2023-08-20T19:00:07;24.00;99.90
45579;DHT22;31293;51.390;12.254;2023-08-20T19:02:13;24.00;99.90
45579;DHT22;31293;51.390;12.254;2023-08-20T19:04:15;24.00;99.90
45579;DHT22;31293;51.390;12.254;2023-08-20T19:06:17;24.00;99.90
45579;DHT22;31293;51.390;12.254;2023-08-20T19:08:19;24.00;99.90
45579;DHT22;31293;51.390;12.254;2023-08-20T19:10:24;23.90;99.90
45579;DHT22;31293;51.390;12.254;2023-08-20T19:12:25;23.90;99.90
45579;DHT22;31293;51.390;12.254;2023-08-20T19:14:27;23.80;99.90
45579;DHT22;31293;51.390;12.254;2023-08-20T19:16:30;23.70;99.90
45579;DHT22;31293;51.390;12.254;2023-08-20T19:18:32;23.60;99.90
45579;DHT22;31293;51.390;12.254;2023-08-20T19:20:33;23.50;99.90
45579;DHT22;31293;51.390;12.254;2023-08-20T19:22:39;23.40;99.90
45579;DHT22;31293;51.390;12.254;2023-08-20T19:24:41;23.30;99.90
45579;DHT22;31293;51.390;12.254;2023-08-20T19:26:45;23.30;99.90
45579;DHT22;31293;51.390;12.254;2023-08-20T19:28:48;23.30;99.90
45579;DHT22;31293;51.390;12.254;2023-08-20T19:30:52;23.40;99.90
45579;DHT22;31293;51.390;12.254;2023-08-20T19:32:57;23.60;99.90
45579;DHT22;31293;51.390;12.254;2023-08-20T19:35:01;23.60;99.90
45579;DHT22;31293;51.390;12.254;2023-08-20T19:37:03;23.80;99.90
45579;DHT22;31293;51.390;12.254;2023-08-20T19:39:05;23.90;99.90
45579;DHT22;31293;51.390;12.254;2023-08-20T19:41:07;23.90;99.90
45579;DHT22;31293;51.390;12.254;2023-08-20T19:43:09;23.80;99.90
45579;DHT22;31293;51.390;12.254;2023-08-20T19:45:11;23.80;99.90
45579;DHT22;31293;51.390;12.254;2023-08-20T19:47:12;23.80;99.90
45579;DHT22;31293;51.390;12.254;2023-08-20T19:49:14;23.80;99.90
45579;DHT22;31293;51.390;12.254;2023-08-20T19:51:17;23.70;99.90
45579;DHT22;31293;51.390;12.254;2023-08-20T19:53:20;23.80;99.90
45579;DHT22;31293;51.390;12.254;2023-08-20T19:55:22;23.80;99.90
45579;DHT22;31293;51.390;12.254;2023-08-20T19:57:24;23.60;99.90
45579;DHT22;31293;51.390;12.254;2023-08-20T19:59:26;23.40;99.90
45579;DHT22;31293;51.390;12.254;2023-08-20T20:01:28;23.30;99.90
45579;DHT22;31293;51.390;12.254;2023-08-20T20:03:30;23.20;99.90
45579;DHT22;31293;51.390;12.254;2023-08-20T20:05:32;23.10;99.90
45579;DHT22;31293;51.390;12.254;2023-08-20T20:07:35;23.00;99.90
45579;DHT22;31293;51.390;12.254;2023-08-20T20:09:37;22.90;99.90
45579;DHT22;31293;51.390;12.254;2023-08-20T20:11:39;22.80;99.90
45579;DHT22;31293;51.390;12.254;2023-08-20T20:13:40;22.90;99.90
45579;DHT22;31293;51.390;12.254;2023-08-20T20:15:43;22.90;99.90
45579;DHT22;31293;51.390;12.254;2023-08-20T20:17:45;22.80;99.90
45579;DHT22;31293;51.390;12.254;2023-08-20T20:19:47;22.60;99.90
45579;DHT22;31293;51.390;12.254;2023-08-20T20:21:50;22.50;99.90
45579;DHT22;31293;51.390;12.254;2023-08-20T20:23:52;22.30;99.90
45579;DHT22;31293;51.390;12.254;2023-08-20T20:25:54;22.20;99.90
45579;DHT22;31293;51.390;12.254;2023-08-20T20:27:56;22.20;99.90
45579;DHT22;31293;51.390;12.254;2023-08-20T20:29:58;22.10;99.90
45579;DHT22;31293;51.390;12.254;2023-08-20T20:32:00;22.00;99.90
45579;DHT22;31293;51.390;12.254;2023-08-20T20:34:02;21.90;99.90
45579;DHT22;31293;51.390;12.254;2023-08-20T20:36:04;21.90;99.90
45579;DHT22;31293;51.390;12.254;2023-08-20T20:38:10;21.80;99.90
45579;DHT22;31293;51.390;12.254;2023-08-20T20:40:12;21.60;99.90
45579;DHT22;31293;51.390;12.254;2023-08-20T20:42:13;21.50;99.90
45579;DHT22;31293;51.390;12.254;2023-08-20T20:44:15;21.40;99.90
45579;DHT22;31293;51.390;12.254;2023-08-20T20:46:19;21.40;99.90
45579;DHT22;31293;51.390;12.254;2023-08-20T20:48:24;21.30;99.90
45579;DHT22;31293;51.390;12.254;2023-08-20T20:50:28;21.30;99.90
45579;DHT22;31293;51.390;12.254;2023-08-20T20:52:30;21.20;99.90
45579;DHT22;31293;51.390;12.254;2023-08-20T20:54:32;21.10;99.90
45579;DHT22;31293;51.390;12.254;2023-08-20T20:56:34;21.00;99.90
45579;DHT22;31293;51.390;12.254;2023-08-20T20:58:36;21.00;99.90
45579;DHT22;31293;51.390;12.254;2023-08-20T21:00:38;20.90;99.90
45579;DHT22;31293;51.390;12.254;2023-08-20T21:02:40;20.80;99.90
45579;DHT22;31293;51.390;12.254;2023-08-20T21:04:42;20.80;99.90
45579;DHT22;31293;51.390;12.254;2023-08-20T21:06:44;20.80;99.90
45579;DHT22;31293;51.390;12.254;2023-08-20T21:08:46;20.70;99.90
45579;DHT22;31293;51.390;12.254;2023-08-20T21:10:49;20.70;99.90
45579;DHT22;31293;51.390;12.254;2023-08-20T21:12:51;20.70;99.90
45579;DHT22;31293;51.390;12.254;2023-08-20T21:14:56;20.60;99.90
45579;DHT22;31293;51.390;12.254;2023-08-20T21:16:57;20.60;99.90
45579;DHT22;31293;51.390;12.254;2023-08-20T21:18:59;20.60;99.90
45579;DHT22;31293;51.390;12.254;2023-08-20T21:21:01;20.60;99.90
45579;DHT22;31293;51.390;12.254;2023-08-20T21:23:03;20.60;99.90
45579;DHT22;31293;51.390;12.254;2023-08-20T21:25:05;20.60;99.90
45579;DHT22;31293;51.390;12.254;2023-08-20T21:27:07;20.60;99.90
45579;DHT22;31293;51.390;12.254;2023-08-20T21:29:09;20.70;99.90
45579;DHT22;31293;51.390;12.254;2023-08-20T21:31:11;20.70;99.90
45579;DHT22;31293;51.390;12.254;2023-08-20T21:33:13;20.60;99.90
45579;DHT22;31293;51.390;12.254;2023-08-20T21:35:15;20.60;99.90
45579;DHT22;31293;51.390;12.254;2023-08-20T21:37:17;20.50;99.90
45579;DHT22;31293;51.390;12.254;2023-08-20T21:39:19;20.70;99.90
45579;DHT22;31293;51.390;12.254;2023-08-20T21:41:20;20.70;99.90
45579;DHT22;31293;51.390;12.254;2023-08-20T21:43:22;20.70;99.90
45579;DHT22;31293;51.390;12.254;2023-08-20T21:45:24;20.70;99.90
45579;DHT22;31293;51.390;12.254;2023-08-20T21:47:26;20.80;99.90
45579;DHT22;31293;51.390;12.254;2023-08-20T21:49:29;20.70;99.90